Flight Track Log - Related Links

Times and Time Zones

All times are in EDT time to prevent confusion due to time zone crossing. See the CTL13 flight status page for this flight to view local times or setup timezone preferences in your user account.

Time Position Orientation Groundspeed Altitude Reporting Facility
EDT Latitude Longitude Course Direction KTS MPH feet Rate Location/Type
Mon 06:45:21 PM 41.5233 -81.6731 346° North 110 127 1,000  Level Cleveland Center
Mon 06:46:40 PM 41.5689 -81.6878 346° North 145 167 2,400 1,075 Climbing Cleveland Center
Mon 06:47:35 PM 41.6022 -81.7106 333° Northwest 144 166 3,400 893 Climbing Cleveland Center
Mon 06:48:41 PM 41.6014 -81.7744 269° West 160 184 4,200 651 Climbing Cleveland Center
Mon 06:50:00 PM 41.5738 -81.8505 246° West  Level Estimated
Mon 06:51:44 PM 41.6017 -81.9494 248° West 161 185 6,100  Level Cleveland Center
Mon 06:53:00 PM 41.5742 -82.0220 243° Southwest  Level Estimated
Mon 06:53:39 PM 41.5856 -82.0711 243° Southwest 171 197 6,100  Level Cleveland Center
Mon 06:54:34 PM 41.5619 -82.1233 239° Southwest 177 204 6,100  Level Cleveland Center
Mon 06:56:00 PM 41.5303 -82.2050 243° Southwest  Level Estimated
Mon 06:57:00 PM 41.4263 -82.2539 248° West  Level Estimated
Mon 06:57:30 PM 41.4886 -82.2850 243° Southwest 170 196 6,100  Level Cleveland Center
Mon 06:58:43 PM 41.4606 -82.3453 238° Southwest 172 198 6,000 -5 Descending Cleveland Center
Mon 07:00:00 PM 41.4323 -82.4184 243° Southwest  Level Estimated
Mon 07:03:00 PM 41.3750 -82.6029 243° Southwest  Level Estimated
Mon 07:07:00 PM 41.2775 -82.8159 243° Southwest  Level Estimated
Mon 07:08:00 PM 41.2552 -82.8726 242° Southwest  Level Estimated
Mon 07:09:00 PM 41.2330 -82.9292 242° Southwest  Level Estimated
Mon 07:10:00 PM 41.2107 -82.9857 242° Southwest  Level Estimated
Mon 07:11:00 PM 41.1884 -83.0423 242° Southwest  Level Estimated
Mon 07:12:00 PM 41.1660 -83.0987 242° Southwest  Level Estimated
Mon 07:13:00 PM 41.1437 -83.1552 242° Southwest  Level Estimated
Mon 07:14:00 PM 41.1213 -83.2116 242° Southwest  Level Estimated
Mon 07:15:00 PM 41.0988 -83.2680 242° Southwest  Level Estimated
Mon 07:16:00 PM 41.0764 -83.3243 242° Southwest  Level Estimated
Mon 07:17:00 PM 41.0539 -83.3806 242° Southwest  Level Estimated
Mon 07:17:36 PM 40.9986 -83.3647 242° Southwest 172 198 6,000  Level Indianapolis Center
Mon 07:18:00 PM 41.0314 -83.4369 242° Southwest  Level Estimated
Mon 07:18:38 PM 40.9717 -83.4181 236° Southwest 172 198 5,900  Level Indianapolis Center
Mon 07:19:00 PM 41.0088 -83.4931 242° Southwest  Level Estimated
Mon 07:19:40 PM 40.9475 -83.4731 240° Southwest 173 199 6,000  Level Indianapolis Center
Mon 07:20:00 PM 40.9863 -83.5492 242° Southwest  Level Estimated
Mon 07:21:00 PM 40.9637 -83.6054 242° Southwest  Level Estimated
Mon 07:21:00 PM 40.9189 -83.5489 245° Southwest  Level Estimated
Mon 07:22:00 PM 40.9411 -83.6615 242° Southwest  Level Estimated
Mon 07:22:45 PM 40.8689 -83.6353 243° Southwest 174 200 6,000  Level Indianapolis Center
Mon 07:23:00 PM 40.9184 -83.7176 242° Southwest  Level Estimated
Mon 07:23:47 PM 40.8386 -83.6994 238° Southwest 175 201 6,000  Level Indianapolis Center
Mon 07:24:49 PM 40.8136 -83.7525 238° Southwest 172 198 6,000  Level Indianapolis Center
Mon 07:26:00 PM 40.7894 -83.8178 236° Southwest  Level Estimated
Mon 07:26:52 PM 40.7589 -83.8606 236° Southwest 175 201 6,000  Level Indianapolis Center
Mon 07:27:54 PM 40.7336 -83.9161 239° Southwest 174 200 5,900 -48 Descending Indianapolis Center
Mon 07:28:00 PM 40.7199 -83.9152 243° Southwest  Level FlightAware Approximate
Mon 07:28:56 PM 40.7056 -83.9706 236° Southwest 176 203 5,900  Level Indianapolis Center
Mon 07:29:23 PM 40.6886 -83.9986 231° Southwest 176 203 5,900  Level Indianapolis Center
Mon 07:29:57 PM 40.6772 -84.0239 239° Southwest 177 204 5,900 82 Level Indianapolis Center
Mon 07:30:36 PM 40.6564 -84.0658 237° Southwest 177 204 6,000  Climbing Indianapolis Center
Mon 07:31:24 PM 40.6319 -84.1094 234° Southwest 179 206 5,900 -71 Descending Indianapolis Center
Mon 07:32:01 PM 40.6158 -84.1394 235° Southwest 176 203 5,900  Level Indianapolis Center
Mon 07:32:31 PM 40.6003 -84.1658 232° Southwest 179 206 5,900  Level Indianapolis Center
Mon 07:33:02 PM 40.5875 -84.1944 240° Southwest 178 205 5,900  Level Indianapolis Center
Mon 07:33:32 PM 40.5711 -84.2194 229° Southwest 178 205 5,900  Level Indianapolis Center
Mon 07:34:04 PM 40.5581 -84.2481 239° Southwest 179 206 5,900  Level Indianapolis Center
Mon 07:34:32 PM 40.5456 -84.2767 240° Southwest 181 208 5,900  Level Indianapolis Center
Mon 07:35:06 PM 40.5314 -84.3044 236° Southwest 180 207 5,900 98 Level Indianapolis Center
Mon 07:35:33 PM 40.5158 -84.3356 237° Southwest 180 207 6,000  Climbing Indianapolis Center
Mon 07:36:07 PM 40.5025 -84.3600 234° Southwest 181 208 5,900  Descending Indianapolis Center
Mon 07:36:34 PM 40.4864 -84.3892 234° Southwest 184 212 6,000 97 Climbing Indianapolis Center
Mon 07:37:09 PM 40.4728 -84.4153 236° Southwest 182 209 6,000  Level Indianapolis Center
Mon 07:37:34 PM 40.4569 -84.4428 233° Southwest 184 212 6,000 -75 Level Indianapolis Center
Mon 07:38:29 PM 40.4297 -84.4939 235° Southwest 184 212 5,900  Descending Indianapolis Center
Mon 07:39:12 PM 40.4147 -84.5258 238° Southwest 182 209 6,000 58 Climbing Indianapolis Center
Mon 07:40:13 PM 40.3847 -84.5819 235° Southwest 184 212 6,000  Level Indianapolis Center
Mon 07:40:30 PM 40.3728 -84.6039 234° Southwest 183 211 6,000  Level Indianapolis Center
Mon 07:41:15 PM 40.3558 -84.6381 237° Southwest 185 213 6,000  Level Indianapolis Center
Mon 07:42:17 PM 40.3236 -84.7022 237° Southwest 181 208 6,000  Level Indianapolis Center
Mon 07:44:20 PM 40.2675 -84.8136 237° Southwest 180 207 6,000  Level Indianapolis Center
Mon 07:45:21 PM 40.2375 -84.8689 235° Southwest 182 209 6,000 -49 Level Indianapolis Center
Mon 07:46:23 PM 40.2081 -84.9225 234° Southwest 181 208 5,900 -48 Descending Indianapolis Center
Mon 07:47:25 PM 40.1775 -84.9750 233° Southwest 181 208 5,900 49 Level Indianapolis Center
Mon 07:48:26 PM 40.1475 -85.0269 233° Southwest 180 207 6,000  Climbing Indianapolis Center
Mon 07:48:41 PM 40.1386 -85.0442 236° Southwest 180 207 5,900 -97 Descending Indianapolis Center
Mon 07:49:28 PM 40.1175 -85.0794 232° Southwest 181 208 5,900  Level Indianapolis Center
Mon 07:49:43 PM 40.1064 -85.1022 237° Southwest 180 207 5,900  Level Indianapolis Center
Mon 07:50:29 PM 40.0883 -85.1319 232° Southwest 180 207 5,900  Level Indianapolis Center
Mon 07:51:31 PM 40.0517 -85.1964 233° Southwest 182 209 5,900  Level Indianapolis Center
Mon 07:52:32 PM 40.0406 -85.2642 258° West 186 214 5,900 33 Level Indianapolis Center
Mon 07:54:35 PM 40.0164 -85.3975 257° West 189 217 6,000 32 Climbing Indianapolis Center
Mon 07:55:37 PM 40.0025 -85.4631 255° West 189 217 6,000  Level Indianapolis Center
Mon 07:56:38 PM 39.9892 -85.5292 255° West 189 217 6,000  Level Indianapolis Center
Mon 07:57:40 PM 39.9764 -85.5958 256° West 189 217 6,000  Level Indianapolis Center
Mon 07:59:28 PM 39.9500 -85.7167 254° West 190 219 6,000  Level Indianapolis TRACON
Mon 07:59:43 PM 39.9475 -85.7422 263° West 190 219 6,000 -78 Level Indianapolis Center
Mon 08:00:45 PM 39.9339 -85.8089 255° West 191 220 5,900 -421 Descending Indianapolis Center
Mon 08:02:34 PM 39.9000 -85.9333 250° West 207 238 4,800 -710 Descending Indianapolis TRACON
Mon 08:03:34 PM 39.8833 -86.0167 255° West 205 236 3,900 -832 Descending Indianapolis TRACON
Mon 08:04:51 PM 39.8722 -86.0903 259° West 204 235 2,900 -500 Descending Indianapolis Center
Mon 08:05:34 PM 39.8667 -86.1500 263° West 177 204 2,900 -45 Level Indianapolis TRACON
Mon 08:07:00 PM 39.8471 -86.2136 248° West  Level FlightAware Approximate
Mon 08:14:00 PM 39.8167 -86.2833 90° East  Level FlightAware Approximate
Mon 08:15:00 PM 39.8308 -86.2944 90° East  Level Estimated
Mon 08:16:00 PM 39.8308 -86.2944 90° East  Level Estimated
Mon 08:17:00 PM 39.8308 -86.2944 90° East  Level Estimated
Mon 08:18:00 PM 39.8308 -86.2944 90° East  Level Estimated
Mon 08:19:00 PM 39.8308 -86.2944 90° East  Level Estimated
Mon 08:20:00 PM 39.8308 -86.2944 90° East  Level Estimated
Mon 08:20:34 PM 39.8833 -86.2833 360° North 132 152 2,200  Level Indianapolis TRACON
Mon 08:21:00 PM 39.8308 -86.2944 90° East  Level Estimated
Mon 08:22:00 PM 39.8308 -86.2944 90° East  Level Estimated
Mon 08:22:00 PM 39.8308 -86.2944 90° East  Level Estimated
Mon 08:23:00 PM 39.8308 -86.2944 90° East  Level Estimated
Mon 08:24:00 PM 39.8308 -86.2944 90° East  Level Estimated
Mon 08:25:00 PM 39.8308 -86.2944 90° East  Level Estimated

Login

Don't have an account? Register now (free) for customized features, flight alerts, and more!